createdAt,value
2023-02-05T00:02:58.393Z,0.00
2023-02-05T00:07:58.301Z,0.00
2023-02-05T00:12:58.207Z,0.00
2023-02-05T00:17:58.146Z,0.00
2023-02-05T00:22:58.077Z,0.00
2023-02-05T00:27:58.043Z,0.00
2023-02-05T00:32:57.946Z,0.00
2023-02-05T00:37:57.889Z,0.00
2023-02-05T00:42:57.842Z,0.00
2023-02-05T00:47:57.759Z,0.00
2023-02-05T00:52:57.691Z,0.00
2023-02-05T00:57:57.637Z,0.00
2023-02-05T01:02:57.572Z,0.00
2023-02-05T01:07:57.503Z,0.00
2023-02-05T01:12:57.434Z,0.00
2023-02-05T01:17:57.378Z,0.00
2023-02-05T01:22:57.312Z,0.00
2023-02-05T01:27:57.273Z,0.00
2023-02-05T01:32:57.184Z,0.00
2023-02-05T01:37:57.119Z,0.00
2023-02-05T01:42:57.041Z,0.00
2023-02-05T01:47:56.984Z,0.00
2023-02-05T01:52:56.912Z,0.00
2023-02-05T01:57:56.855Z,0.00
2023-02-05T02:02:56.781Z,0.00
2023-02-05T02:07:56.725Z,0.00
2023-02-05T02:12:56.654Z,0.00
2023-02-05T02:17:56.595Z,0.00
2023-02-05T02:22:56.528Z,0.00
2023-02-05T02:27:56.527Z,0.00
2023-02-05T02:32:56.405Z,0.00
2023-02-05T02:37:56.344Z,0.00
2023-02-05T02:42:56.264Z,0.00
2023-02-05T02:47:56.217Z,0.00
2023-02-05T02:52:56.142Z,0.00
2023-02-05T02:57:56.084Z,0.00
2023-02-05T03:02:56.012Z,0.00
2023-02-05T03:07:55.960Z,0.00
2023-02-05T03:12:55.886Z,0.00
2023-02-05T03:17:55.830Z,0.00
2023-02-05T03:22:55.755Z,0.00
2023-02-05T03:27:55.750Z,0.00
2023-02-05T03:32:55.638Z,0.00
2023-02-05T03:37:55.575Z,0.00
2023-02-05T03:42:55.499Z,0.00
2023-02-05T03:47:55.439Z,0.00
2023-02-05T03:52:55.367Z,0.00
2023-02-05T03:57:55.320Z,0.00
2023-02-05T04:02:55.237Z,0.00
2023-02-05T04:07:55.172Z,0.00
2023-02-05T04:12:55.093Z,0.00
2023-02-05T04:17:55.031Z,0.00
2023-02-05T04:22:54.978Z,0.00
2023-02-05T04:27:54.963Z,0.00
2023-02-05T04:32:54.836Z,0.00
2023-02-05T04:37:54.788Z,0.00
2023-02-05T04:42:54.702Z,0.00
2023-02-05T04:47:54.648Z,0.00
2023-02-05T04:52:54.578Z,0.00
2023-02-05T04:57:54.514Z,0.00
2023-02-05T05:02:54.448Z,0.00
2023-02-05T05:07:54.382Z,0.00
2023-02-05T05:12:54.306Z,0.00
2023-02-05T05:17:54.246Z,0.00
2023-02-05T05:22:54.184Z,0.00
2023-02-05T05:27:54.121Z,0.00
2023-02-05T05:32:54.057Z,0.00
2023-02-05T05:37:53.977Z,0.00
2023-02-05T05:42:53.920Z,0.00
2023-02-05T05:47:53.849Z,0.00
2023-02-05T05:52:53.787Z,0.00
2023-02-05T05:57:53.711Z,0.00
2023-02-05T06:02:53.658Z,0.00
2023-02-05T06:07:53.573Z,4.00
2023-02-05T06:12:53.530Z,4.00
2023-02-05T06:17:53.441Z,8.00
2023-02-05T06:22:53.394Z,20.00
2023-02-05T06:27:53.332Z,48.00
2023-02-05T06:32:53.272Z,104.00
2023-02-05T06:37:53.178Z,188.00
2023-02-05T06:42:53.120Z,280.00
2023-02-05T06:47:53.055Z,372.00
2023-02-05T06:52:52.990Z,564.00
2023-02-05T06:57:52.913Z,796.00
2023-02-05T07:02:52.920Z,860.00
2023-02-05T07:07:52.787Z,912.00
2023-02-05T07:12:52.731Z,996.00
2023-02-05T07:17:52.662Z,1196.00
2023-02-05T07:22:52.617Z,1676.00
2023-02-05T07:27:52.615Z,2764.00
2023-02-05T07:32:52.489Z,3176.00
2023-02-05T07:37:52.390Z,5132.00
2023-02-05T07:42:52.341Z,6492.00
2023-02-05T07:47:52.253Z,4644.00
2023-02-05T07:52:52.214Z,14112.00
2023-02-05T07:57:52.128Z,16352.00
2023-02-05T08:02:52.059Z,18272.00
2023-02-05T08:07:52.001Z,17792.00
2023-02-05T08:12:51.931Z,13236.00
2023-02-05T08:17:51.872Z,9928.00
2023-02-05T08:22:51.821Z,10620.00
2023-02-05T08:27:51.851Z,9340.00
2023-02-05T08:32:51.674Z,9980.00
2023-02-05T08:37:51.603Z,10060.00
2023-02-05T08:42:51.543Z,9408.00
2023-02-05T08:47:51.469Z,23040.00
2023-02-05T08:52:51.412Z,13656.00
2023-02-05T08:57:51.338Z,8896.00
2023-02-05T09:02:51.286Z,8928.00
2023-02-05T09:07:51.209Z,10328.00
2023-02-05T09:12:51.153Z,15704.00
2023-02-05T09:17:51.089Z,16512.00
2023-02-05T09:22:51.037Z,17600.00
2023-02-05T09:27:51.001Z,23392.00
2023-02-05T09:32:50.896Z,14416.00
2023-02-05T09:37:50.837Z,12656.00
2023-02-05T09:42:50.840Z,10112.00
2023-02-05T09:47:50.708Z,9040.00
2023-02-05T09:52:50.641Z,8292.00
2023-02-05T09:57:50.568Z,7976.00
2023-02-05T10:02:50.508Z,7236.00
2023-02-05T10:07:50.441Z,6400.00
2023-02-05T10:12:50.377Z,5788.00
2023-02-05T10:17:50.305Z,5324.00
2023-02-05T10:22:50.246Z,4932.00
2023-02-05T10:27:50.229Z,5012.00
2023-02-05T10:32:50.117Z,5360.00
2023-02-05T10:37:50.048Z,5924.00
2023-02-05T10:42:49.989Z,7000.00
2023-02-05T10:47:49.915Z,7800.00
2023-02-05T10:52:49.859Z,8840.00
2023-02-05T10:57:49.789Z,9600.00
2023-02-05T11:02:49.760Z,9144.00
2023-02-05T11:07:49.656Z,8132.00
2023-02-05T11:12:49.597Z,7176.00
2023-02-05T11:17:49.546Z,7072.00
2023-02-05T11:22:49.472Z,7248.00
2023-02-05T11:27:49.423Z,9148.00
2023-02-05T11:32:49.335Z,8812.00
2023-02-05T11:37:49.275Z,8996.00
2023-02-05T11:42:49.207Z,7484.00
2023-02-05T11:47:49.144Z,7248.00
2023-02-05T11:52:49.073Z,6736.00
2023-02-05T11:57:49.012Z,6812.00
2023-02-05T12:02:48.968Z,6964.00
2023-02-05T12:07:48.889Z,7100.00
2023-02-05T12:12:48.819Z,7304.00
2023-02-05T12:17:48.774Z,7400.00
2023-02-05T12:22:48.733Z,7744.00
2023-02-05T12:27:48.666Z,7776.00
2023-02-05T12:32:48.554Z,7936.00
2023-02-05T12:37:48.491Z,8256.00
2023-02-05T12:42:48.424Z,9364.00
2023-02-05T12:47:48.363Z,7244.00
2023-02-05T12:52:48.292Z,7204.00
2023-02-05T12:57:48.229Z,7108.00
2023-02-05T13:02:48.171Z,6936.00
2023-02-05T13:07:48.104Z,6752.00
2023-02-05T13:12:48.036Z,6584.00
2023-02-05T13:17:47.970Z,6440.00
2023-02-05T13:22:47.924Z,6320.00
2023-02-05T13:27:47.888Z,6176.00
2023-02-05T13:32:47.791Z,6040.00
2023-02-05T13:37:47.718Z,5880.00
2023-02-05T13:42:47.662Z,5684.00
2023-02-05T13:47:47.581Z,5480.00
2023-02-05T13:52:47.531Z,5264.00
2023-02-05T13:57:47.451Z,5016.00
2023-02-05T14:02:47.391Z,4732.00
2023-02-05T14:07:47.330Z,4452.00
2023-02-05T14:12:47.262Z,4180.00
2023-02-05T14:17:47.203Z,3888.00
2023-02-05T14:22:47.139Z,3600.00
2023-02-05T14:27:47.104Z,3360.00
2023-02-05T14:32:47.014Z,3160.00
2023-02-05T14:37:46.943Z,3008.00
2023-02-05T14:42:46.898Z,2856.00
2023-02-05T14:47:46.831Z,2728.00
2023-02-05T14:52:46.764Z,2672.00
2023-02-05T14:57:46.784Z,2616.00
2023-02-05T15:02:46.814Z,2564.00
2023-02-05T15:07:46.810Z,2452.00
2023-02-05T15:12:46.507Z,2260.00
2023-02-05T15:17:46.436Z,2048.00
2023-02-05T15:22:46.371Z,1832.00
2023-02-05T15:27:46.342Z,1628.00
2023-02-05T15:32:46.244Z,1436.00
2023-02-05T15:37:46.182Z,1236.00
2023-02-05T15:42:46.123Z,1044.00
2023-02-05T15:47:46.051Z,860.00
2023-02-05T15:52:45.990Z,688.00
2023-02-05T15:57:45.920Z,524.00
2023-02-05T16:02:45.938Z,372.00
2023-02-05T16:07:45.785Z,248.00
2023-02-05T16:12:45.741Z,152.00
2023-02-05T16:17:45.671Z,84.00
2023-02-05T16:22:45.623Z,40.00
2023-02-05T16:27:45.617Z,20.00
2023-02-05T16:32:45.483Z,4.00
2023-02-05T16:37:45.397Z,4.00
2023-02-05T16:42:45.335Z,0.00
2023-02-05T16:47:45.263Z,0.00
2023-02-05T16:52:45.205Z,0.00
2023-02-05T16:57:45.133Z,0.00
2023-02-05T17:02:45.079Z,0.00
2023-02-05T17:07:45.007Z,0.00
2023-02-05T17:12:44.957Z,0.00
2023-02-05T17:17:44.879Z,0.00
2023-02-05T17:22:44.832Z,0.00
2023-02-05T17:27:44.765Z,0.00
2023-02-05T17:32:44.701Z,0.00
2023-02-05T17:37:44.620Z,0.00
2023-02-05T17:42:46.347Z,0.00
2023-02-05T17:47:44.490Z,0.00
2023-02-05T17:52:44.442Z,0.00
2023-02-05T17:57:44.365Z,0.00
2023-02-05T18:02:44.313Z,0.00
2023-02-05T18:07:44.248Z,0.00
2023-02-05T18:12:44.174Z,0.00
2023-02-05T18:17:44.099Z,0.00
2023-02-05T18:22:44.045Z,0.00
2023-02-05T18:27:44.089Z,0.00
2023-02-05T18:32:43.912Z,0.00
2023-02-05T18:37:43.842Z,0.00
2023-02-05T18:42:43.784Z,0.00
2023-02-05T18:47:43.723Z,0.00
2023-02-05T18:52:43.654Z,0.00
2023-02-05T18:57:43.581Z,0.00
2023-02-05T19:02:43.524Z,0.00
2023-02-05T19:07:43.458Z,0.00
2023-02-05T19:12:43.397Z,0.00
2023-02-05T19:17:43.327Z,0.00
2023-02-05T19:22:43.262Z,0.00
2023-02-05T19:27:43.238Z,0.00
2023-02-05T19:32:43.128Z,0.00
2023-02-05T19:37:43.069Z,0.00
2023-02-05T19:42:43.010Z,0.00
2023-02-05T19:47:42.940Z,0.00
2023-02-05T19:52:42.873Z,0.00
2023-02-05T19:57:42.798Z,0.00
2023-02-05T20:02:42.740Z,0.00
2023-02-05T20:07:42.666Z,0.00
2023-02-05T20:12:42.604Z,0.00
2023-02-05T20:17:42.530Z,0.00
2023-02-05T20:22:42.472Z,0.00
2023-02-05T20:27:42.437Z,0.00
2023-02-05T20:32:42.337Z,0.00
2023-02-05T20:37:42.281Z,0.00
2023-02-05T20:42:42.204Z,0.00
2023-02-05T20:47:42.141Z,0.00
2023-02-05T20:52:42.073Z,0.00
2023-02-05T20:57:42.021Z,0.00
2023-02-05T21:02:41.945Z,0.00
2023-02-05T21:07:41.884Z,0.00
2023-02-05T21:12:41.824Z,0.00
2023-02-05T21:17:41.761Z,0.00
2023-02-05T21:22:41.690Z,0.00
2023-02-05T21:27:41.623Z,0.00
2023-02-05T21:32:41.561Z,0.00
2023-02-05T21:37:41.497Z,0.00
2023-02-05T21:42:41.430Z,0.00
2023-02-05T21:47:41.372Z,0.00
2023-02-05T21:52:41.304Z,0.00
2023-02-05T21:57:41.232Z,0.00
2023-02-05T22:02:41.183Z,0.00
2023-02-05T22:07:41.121Z,0.00
2023-02-05T22:12:41.055Z,0.00
2023-02-05T22:17:40.993Z,0.00
2023-02-05T22:22:40.931Z,0.00
2023-02-05T22:27:40.863Z,0.00
2023-02-05T22:32:40.824Z,0.00
2023-02-05T22:37:40.745Z,0.00
2023-02-05T22:42:40.678Z,0.00
2023-02-05T22:47:40.618Z,0.00
2023-02-05T22:52:40.545Z,0.00
2023-02-05T22:57:40.487Z,0.00
2023-02-05T23:02:40.420Z,0.00
2023-02-05T23:07:40.357Z,0.00
2023-02-05T23:12:40.323Z,0.00
2023-02-05T23:17:40.215Z,0.00
2023-02-05T23:22:40.179Z,0.00
2023-02-05T23:27:40.092Z,0.00
2023-02-05T23:32:40.035Z,0.00
2023-02-05T23:37:39.992Z,0.00
2023-02-05T23:42:39.921Z,0.00
2023-02-05T23:47:39.844Z,0.00
2023-02-05T23:52:39.790Z,0.00
2023-02-05T23:57:39.720Z,0.00
